Belmont, Canada
Current Conditions -  °F | °C
As of 7:00 PM on Monday 20 Oct 2014 (Local Time) from CYHZ Reporting Station
Few Clouds Few Clouds  
Wind Chill: 34°   Ceiling: Unl
Heat Index: 39°   Visibility: 15mi
Dew Point: 32°   Wind: 7mph
Humidity: 75%   Direction: 270°W
Pressure: 29.9"   Gusts: NA
Location:  45.42°N, 63.38°W
Report Text: CYHZ 202200Z 27006KT 15SM FEW035 04/M00 A2990 RMK SC1 SC TR SLP129
Loading
Personal Weather Stations






























Interactive Weather Map
Tropical Storm Tracking
New forecast layout! Learn more

10-Day Weather Forecast

Advertisements
Track Severe Weather on mobile